Time;durP1;ratioP1;P1;durP2;ratioP2;P2;SDS_P1;SDS_P2;PMS_P1;PMS_P2;Temp;Humidity;BMP_temperature;BMP_pressure;BME280_temperature;BME280_humidity;BME280_pressure;Samples;Min_cycle;Max_cycle;Signal;HPM_P1;HPM_P2
2021/09/15 00:00:20;;;;;;;11.33;7.53;;;;;;;19.04;100.00;95779.94;1044642;28;20013;-79
2021/09/15 00:00:50;;;;;;;10.07;7.20;;;;;;;19.05;100.00;95780.72;1044628;28;20021;-79
2021/09/15 00:01:20;;;;;;;10.40;7.17;;;;;;;19.06;100.00;95779.59;1040554;28;20100;-78
2021/09/15 00:01:51;;;;;;;11.57;7.57;;;;;;;19.05;100.00;95775.31;1040354;28;20033;-79
2021/09/15 00:02:21;;;;;;;11.30;7.60;;;;;;;19.03;100.00;95783.75;1035026;28;20014;-78
2021/09/15 00:02:52;;;;;;;15.03;7.60;;;;;;;18.99;100.00;95772.00;1036274;28;20034;-79
2021/09/15 00:03:22;;;;;;;10.10;7.73;;;;;;;19.01;100.00;95771.66;1032352;28;20037;-79
2021/09/15 00:03:53;;;;;;;11.93;7.67;;;;;;;19.03;100.00;95777.53;1032350;28;20391;-78
2021/09/15 00:04:23;;;;;;;11.27;7.50;;;;;;;19.01;100.00;95771.66;1032282;28;20029;-78
2021/09/15 00:04:54;;;;;;;14.90;7.53;;;;;;;19.00;100.00;95778.22;1032514;28;20462;-78
2021/09/15 00:05:24;;;;;;;10.47;7.70;;;;;;;19.00;100.00;95772.78;1036390;28;20018;-78
2021/09/15 00:05:54;;;;;;;10.73;7.40;;;;;;;18.98;100.00;95764.97;1036434;28;20400;-77
2021/09/15 00:06:25;;;;;;;13.73;7.67;;;;;;;19.01;100.00;95766.25;1040538;28;20018;-78
2021/09/15 00:06:56;;;;;;;11.25;6.97;;;;;;;19.00;100.00;95767.38;1036473;28;20104;-79
2021/09/15 00:07:26;;;;;;;12.57;7.17;;;;;;;18.98;100.00;95766.91;1040422;28;20473;-79
2021/09/15 00:07:57;;;;;;;13.43;7.57;;;;;;;18.99;100.00;95771.19;1036287;28;20069;-78
2021/09/15 00:08:27;;;;;;;14.23;7.40;;;;;;;18.97;100.00;95771.53;1036362;28;20014;-79
2021/09/15 00:08:58;;;;;;;13.07;8.20;;;;;;;18.97;100.00;95774.22;1040514;28;20096;-79
2021/09/15 00:09:28;;;;;;;12.97;7.80;;;;;;;18.95;100.00;95771.84;1036477;28;20021;-79
2021/09/15 00:09:59;;;;;;;11.00;7.63;;;;;;;18.95;100.00;95771.84;1040537;28;20021;-79
2021/09/15 00:10:29;;;;;;;10.43;7.40;;;;;;;18.97;100.00;95774.22;1036383;28;20041;-78
2021/09/15 00:11:00;;;;;;;11.00;7.40;;;;;;;18.97;100.00;95774.22;1036420;28;20083;-79
2021/09/15 00:11:31;;;;;;;12.63;7.57;;;;;;;18.98;100.00;95777.72;1036319;28;20022;-78
2021/09/15 00:12:01;;;;;;;11.10;7.13;;;;;;;19.00;100.00;95772.78;1032758;28;20348;-79
2021/09/15 00:12:32;;;;;;;10.13;7.10;;;;;;;18.99;100.00;95771.19;1040409;28;20326;-79
2021/09/15 00:13:02;;;;;;;13.50;7.00;;;;;;;18.99;100.00;95763.88;1040471;28;20023;-78
2021/09/15 00:13:33;;;;;;;11.13;7.10;;;;;;;19.01;100.00;95771.66;1044646;28;20028;-79
2021/09/15 00:14:03;;;;;;;15.03;7.57;;;;;;;19.01;100.00;95771.66;1040439;28;20124;-79
2021/09/15 00:14:34;;;;;;;8.57;7.17;;;;;;;18.98;100.00;95770.38;1040440;28;20017;-78
2021/09/15 00:15:05;;;;;;;10.03;7.33;;;;;;;18.97;100.00;95763.41;1040393;28;20108;-78
2021/09/15 00:15:36;;;;;;;12.40;7.00;;;;;;;18.97;100.00;95768.81;1032617;28;20022;-79
2021/09/15 00:16:06;;;;;;;12.93;7.47;;;;;;;18.94;100.00;95769.50;1040506;28;20444;-80
2021/09/15 00:16:37;;;;;;;10.13;7.07;;;;;;;18.96;100.00;95773.44;1036373;28;20022;-78
2021/09/15 00:17:07;;;;;;;12.37;7.67;;;;;;;18.97;100.00;95776.94;1036414;28;20045;-79
2021/09/15 00:17:38;;;;;;;15.93;7.90;;;;;;;18.94;100.00;95772.97;1044644;28;20013;-79
2021/09/15 00:18:08;;;;;;;11.53;8.07;;;;;;;18.95;100.00;95771.84;1044581;28;20021;-79
2021/09/15 00:18:38;;;;;;;11.70;7.30;;;;;;;18.96;100.00;95778.06;1036261;28;20029;-79
2021/09/15 00:19:09;;;;;;;15.00;7.53;;;;;;;18.98;100.00;95772.31;1036194;28;20017;-79
2021/09/15 00:19:39;;;;;;;13.20;7.10;;;;;;;18.96;100.00;95778.06;1028347;28;20048;-79
2021/09/15 00:20:10;;;;;;;11.27;8.13;;;;;;;18.97;100.00;95785.06;1032218;28;20014;-77
2021/09/15 00:20:41;;;;;;;11.45;7.50;;;;;;;18.94;100.00;95772.97;1032454;28;20162;-78
2021/09/15 00:21:11;;;;;;;13.97;7.53;;;;;;;18.96;100.00;95773.44;1032389;28;20061;-80
2021/09/15 00:21:42;;;;;;;12.50;7.20;;;;;;;18.96;100.00;95778.84;1032437;28;20015;-78
2021/09/15 00:22:12;;;;;;;12.33;7.10;;;;;;;18.94;100.00;95775.69;1035439;28;20026;-79
2021/09/15 00:22:43;;;;;;;12.63;8.40;;;;;;;18.94;100.00;95778.41;1028297;28;20023;-78
2021/09/15 00:23:13;;;;;;;10.17;6.73;;;;;;;18.97;100.00;95776.94;1032297;28;20015;-79
2021/09/15 00:23:43;;;;;;;11.97;7.10;;;;;;;18.91;100.00;95770.91;1032430;28;20033;-79
2021/09/15 00:24:14;;;;;;;8.57;6.90;;;;;;;18.94;100.00;95777.59;1036498;28;20375;-79
2021/09/15 00:24:44;;;;;;;12.57;7.07;;;;;;;18.94;100.00;95775.69;1040444;28;20474;-78
2021/09/15 00:25:15;;;;;;;12.40;7.30;;;;;;;18.93;100.00;95774.09;1042008;28;20017;-78
2021/09/15 00:25:45;;;;;;;9.33;7.00;;;;;;;18.95;100.00;95784.59;1044567;28;20029;-79
2021/09/15 00:26:16;;;;;;;9.13;6.87;;;;;;;18.98;100.00;95780.44;1044527;28;20074;-78
2021/09/15 00:26:46;;;;;;;12.63;7.37;;;;;;;18.98;100.00;95772.31;1044503;28;20024;-78
2021/09/15 00:27:16;;;;;;;10.90;7.30;;;;;;;18.96;100.00;95770.72;1044501;28;20029;-78
2021/09/15 00:27:47;;;;;;;11.10;7.63;;;;;;;18.97;100.00;95779.66;1040365;28;20438;-79
2021/09/15 00:28:17;;;;;;;10.07;6.90;;;;;;;18.96;100.00;95772.66;1040407;28;20018;-78
2021/09/15 00:28:48;;;;;;;9.47;7.10;;;;;;;18.97;100.00;95782.34;1036237;28;20018;-79
2021/09/15 00:29:18;;;;;;;11.03;7.30;;;;;;;18.99;100.00;95771.19;1036328;28;20017;-77
2021/09/15 00:29:48;;;;;;;10.40;7.30;;;;;;;18.99;100.00;95777.41;1040407;28;20382;-79
2021/09/15 00:30:19;;;;;;;12.37;7.80;;;;;;;18.96;100.00;95781.56;1040399;28;20379;-79
2021/09/15 00:30:49;;;;;;;9.63;7.50;;;;;;;18.94;100.00;95778.41;1040486;28;20411;-79
2021/09/15 00:31:20;;;;;;;11.07;7.57;;;;;;;18.90;100.00;95782.09;1032131;28;20022;-79
2021/09/15 00:31:50;;;;;;;11.83;7.53;;;;;;;18.85;100.00;95779.56;1030120;28;20026;-78
2021/09/15 00:32:21;;;;;;;15.23;7.30;;;;;;;18.79;100.00;95778.19;1028473;28;20042;-79
2021/09/15 00:32:51;;;;;;;10.73;7.30;;;;;;;18.79;100.00;95772.75;1036419;28;20017;-79
2021/09/15 00:33:21;;;;;;;10.77;7.80;;;;;;;18.76;100.00;95778.81;1040649;28;20027;-79
2021/09/15 00:33:52;;;;;;;13.80;8.40;;;;;;;18.72;100.00;95781.38;1040715;28;20028;-79
2021/09/15 00:34:27;;;;;;;12.90;7.27;;;;;;;18.64;100.00;95788.41;1040683;28;20025;-79
2021/09/15 00:34:57;;;;;;;10.85;7.28;;;;;;;18.63;100.00;95786.81;1044530;28;20025;-79
2021/09/15 00:35:28;;;;;;;13.47;7.87;;;;;;;18.58;100.00;95783.47;1044435;28;20094;-79
2021/09/15 00:35:58;;;;;;;9.73;7.27;;;;;;;18.60;100.00;95782.06;1044615;28;20386;-78
2021/09/15 00:36:29;;;;;;;13.87;8.03;;;;;;;18.55;100.00;95779.53;1040401;28;20509;-79
2021/09/15 00:36:59;;;;;;;12.40;8.30;;;;;;;18.52;100.00;95777.47;1036058;28;20097;-79
2021/09/15 00:37:29;;;;;;;10.80;8.40;;;;;;;18.49;100.00;95783.53;1036218;28;20025;-80
2021/09/15 00:38:00;;;;;;;17.80;8.50;;;;;;;18.45;100.00;95785.31;1032300;28;20030;-79
2021/09/15 00:38:30;;;;;;;13.73;8.00;;;;;;;18.44;100.00;95775.59;1032263;28;20030;-79
2021/09/15 00:39:01;;;;;;;12.77;7.93;;;;;;;18.43;100.00;95782.94;1036347;28;20060;-79
2021/09/15 00:39:31;;;;;;;8.47;6.87;;;;;;;18.36;100.00;95779.13;1032207;28;20117;-79
2021/09/15 00:40:02;;;;;;;11.47;7.30;;;;;;;18.34;100.00;95778.66;1036594;28;20021;-79
2021/09/15 00:40:33;;;;;;;13.17;7.87;;;;;;;18.32;100.00;95778.97;1036300;28;20081;-79
2021/09/15 00:41:03;;;;;;;11.47;7.83;;;;;;;18.31;100.00;95777.41;1036443;28;20029;-80
2021/09/15 00:41:34;;;;;;;13.73;8.40;;;;;;;18.30;100.00;95778.53;1036239;28;20493;-79
2021/09/15 00:42:04;;;;;;;13.60;7.90;;;;;;;18.26;100.00;95777.56;1036499;28;20014;-79
2021/09/15 00:42:35;;;;;;;12.97;8.23;;;;;;;18.27;100.00;95778.38;1040315;28;20021;-79
2021/09/15 00:43:05;;;;;;;9.87;7.40;;;;;;;18.27;100.00;95773.78;1036419;28;20033;-79
2021/09/15 00:43:58;;;;;;;12.37;7.93;;;;;;;18.27;100.00;95781.88;1040321;28;20026;-79
2021/09/15 00:44:28;;;;;;;11.45;7.00;;;;;;;18.23;100.00;95774.75;1043178;28;20035;-80
2021/09/15 00:44:59;;;;;;;11.23;7.93;;;;;;;18.18;100.00;95776.50;1044690;28;20358;-79
2021/09/15 00:45:29;;;;;;;13.03;7.73;;;;;;;18.18;100.00;95781.13;1044701;28;20502;-80
2021/09/15 00:46:00;;;;;;;10.23;7.53;;;;;;;18.17;100.00;95785.75;1044445;28;20025;-78
2021/09/15 00:46:30;;;;;;;9.87;7.53;;;;;;;18.17;100.00;95783.03;1044465;28;20020;-79
2021/09/15 00:47:01;;;;;;;10.33;7.63;;;;;;;18.17;100.00;95788.44;1044451;28;20073;-80
2021/09/15 00:47:31;;;;;;;10.10;7.60;;;;;;;18.16;100.00;95784.13;1044518;28;20087;-79
2021/09/15 00:48:01;;;;;;;10.63;7.70;;;;;;;18.17;100.00;95787.66;1044723;28;20032;-79
2021/09/15 00:48:32;;;;;;;10.60;7.57;;;;;;;18.15;100.00;95784.47;1044462;28;20033;-80
2021/09/15 00:49:03;;;;;;;14.13;8.13;;;;;;;18.13;100.00;95778.59;1044497;28;20032;-79
2021/09/15 00:49:33;;;;;;;12.27;7.23;;;;;;;18.12;100.00;95787.81;1040344;28;20346;-79
2021/09/15 00:50:04;;;;;;;11.53;8.23;;;;;;;18.10;100.00;95785.41;1039816;28;20037;-79
2021/09/15 00:50:34;;;;;;;14.27;8.93;;;;;;;18.09;100.00;95783.84;1040270;28;20032;-79
2021/09/15 00:51:05;;;;;;;12.43;7.90;;;;;;;18.07;100.00;95790.69;1032213;28;20569;-80
2021/09/15 00:51:40;;;;;;;13.47;8.30;;;;;;;18.07;100.00;95790.69;1024130;29;20027;-79
2021/09/15 00:52:10;;;;;;;12.43;7.95;;;;;;;18.07;100.00;95793.41;1028162;28;20034;-78
2021/09/15 00:52:41;;;;;;;10.53;7.77;;;;;;;18.10;100.00;95787.34;1028215;28;20375;-78
2021/09/15 00:53:12;;;;;;;11.32;7.75;;;;;;;18.12;100.00;95787.81;1028990;28;20588;-78
2021/09/15 00:53:42;;;;;;;12.07;7.70;;;;;;;18.14;100.00;95791.78;1031673;28;20089;-79
2021/09/15 00:54:13;;;;;;;10.87;7.30;;;;;;;18.16;100.00;95788.75;1031704;28;20026;-78
2021/09/15 00:54:43;;;;;;;12.90;7.77;;;;;;;18.16;100.00;95789.53;1040189;28;20395;-78
2021/09/15 00:55:13;;;;;;;12.20;8.10;;;;;;;18.15;100.00;95784.47;1036106;28;20028;-79
2021/09/15 00:55:44;;;;;;;13.20;7.83;;;;;;;18.12;100.00;95794.03;1036224;28;20033;-79
2021/09/15 00:56:14;;;;;;;13.03;8.03;;;;;;;18.11;100.00;95789.72;1036266;28;20033;-78
2021/09/15 00:56:45;;;;;;;13.40;7.83;;;;;;;18.13;100.00;95794.81;1036240;28;20025;-78
2021/09/15 00:57:15;;;;;;;13.97;8.60;;;;;;;18.14;100.00;95793.69;1040411;28;20010;-78
2021/09/15 00:57:46;;;;;;;11.33;7.53;;;;;;;18.16;100.00;95789.53;1040315;28;20512;-80
2021/09/15 00:58:16;;;;;;;10.03;7.57;;;;;;;18.15;100.00;95785.25;1036235;28;20062;-79
2021/09/15 00:58:46;;;;;;;14.37;8.20;;;;;;;18.14;100.00;95794.47;1036210;28;20374;-78
2021/09/15 00:59:17;;;;;;;9.57;7.50;;;;;;;18.15;100.00;95787.16;1032175;28;20551;-79
2021/09/15 00:59:47;;;;;;;14.97;8.03;;;;;;;18.15;100.00;95789.88;1032163;28;20040;-77
2021/09/15 01:00:18;;;;;;;11.10;7.53;;;;;;;18.12;100.00;95791.31;1036203;28;20022;-77
2021/09/15 01:00:48;;;;;;;12.50;7.37;;;;;;;18.12;100.00;95788.63;1040197;28;20033;-78
2021/09/15 01:01:18;;;;;;;9.53;7.53;;;;;;;18.13;100.00;95786.69;1040596;28;20018;-78
2021/09/15 01:01:49;;;;;;;11.63;7.87;;;;;;;18.15;100.00;95787.94;1040602;28;20032;-79
2021/09/15 01:02:19;;;;;;;11.23;8.10;;;;;;;18.14;100.00;95791.00;1041294;28;20028;-78
2021/09/15 01:02:50;;;;;;;14.37;7.40;;;;;;;18.16;100.00;95786.03;1040229;28;20355;-78
2021/09/15 01:03:20;;;;;;;14.80;7.47;;;;;;;18.15;100.00;95782.53;1035657;28;20467;-79
2021/09/15 01:03:50;;;;;;;13.67;7.87;;;;;;;18.17;100.00;95774.91;1032163;28;20388;-78
2021/09/15 01:04:21;;;;;;;13.80;8.50;;;;;;;18.17;100.00;95782.25;1032297;28;20030;-78
2021/09/15 01:04:51;;;;;;;11.13;7.57;;;;;;;18.15;100.00;95785.25;1027970;28;20023;-77
2021/09/15 01:05:22;;;;;;;13.80;7.80;;;;;;;18.17;100.00;95774.91;1024229;28;20441;-78
2021/09/15 01:05:52;;;;;;;14.43;7.47;;;;;;;18.17;100.00;95774.13;1028094;28;20026;-80
2021/09/15 01:06:23;;;;;;;11.47;7.50;;;;;;;18.20;100.00;95768.06;1024123;28;20087;-79
2021/09/15 01:06:53;;;;;;;10.23;7.70;;;;;;;18.21;100.00;95772.34;1028192;28;20018;-79
2021/09/15 01:07:24;;;;;;;12.97;7.90;;;;;;;18.17;100.00;95768.72;1024118;29;20074;-79
2021/09/15 01:07:55;;;;;;;10.27;7.63;;;;;;;18.19;100.00;95766.47;1028217;28;20437;-79
2021/09/15 01:08:25;;;;;;;11.30;7.83;;;;;;;18.20;100.00;95768.06;1032273;28;20034;-77
2021/09/15 01:08:55;;;;;;;14.50;7.73;;;;;;;18.21;100.00;95764.22;1036158;28;20017;-78
2021/09/15 01:09:26;;;;;;;10.50;7.70;;;;;;;18.19;100.00;95755.66;1032141;28;20069;-78
2021/09/15 01:09:56;;;;;;;11.83;7.27;;;;;;;18.18;100.00;95760.28;1028082;28;20018;-78
2021/09/15 01:10:27;;;;;;;10.73;7.63;;;;;;;18.17;100.00;95772.22;1028309;28;20038;-79
2021/09/15 01:10:57;;;;;;;14.10;7.60;;;;;;;18.16;100.00;95761.69;1032193;28;20018;-79
2021/09/15 01:11:28;;;;;;;11.40;7.53;;;;;;;18.15;100.00;95758.19;1036209;28;20034;-79
2021/09/15 01:11:59;;;;;;;13.60;8.27;;;;;;;18.14;100.00;95770.16;1036112;28;20105;-78
2021/09/15 01:12:29;;;;;;;11.67;7.90;;;;;;;18.12;100.00;95764.28;1032205;28;20022;-80
2021/09/15 01:12:59;;;;;;;11.33;8.47;;;;;;;18.13;100.00;95765.84;1027954;28;20125;-79
2021/09/15 01:13:31;;;;;;;12.03;7.70;;;;;;;18.14;100.00;95769.34;1023919;28;20023;-78
2021/09/15 01:14:02;;;;;;;11.70;7.72;;;;;;;18.12;100.00;95761.56;1028348;28;20043;-78
2021/09/15 01:14:32;;;;;;;10.53;7.93;;;;;;;18.10;100.00;95768.41;1032064;28;20030;-79
2021/09/15 01:15:03;;;;;;;12.13;7.80;;;;;;;18.10;100.00;95763.78;1028603;28;20273;-78
2021/09/15 01:15:34;;;;;;;13.02;8.02;;;;;;;18.09;100.00;95769.53;1032096;28;20034;-79
2021/09/15 01:16:05;;;;;;;10.63;8.20;;;;;;;18.07;100.00;95769.06;1032329;28;20360;-79
2021/09/15 01:16:51;;;;;;;12.07;8.20;;;;;;;18.04;100.00;95767.78;1040394;28;20323;-79
2021/09/15 01:17:22;;;;;;;14.38;8.15;;;;;;;18.00;100.00;95766.84;1042416;28;20104;-78
2021/09/15 01:17:52;;;;;;;13.03;7.47;;;;;;;18.00;100.00;95769.53;1040248;28;20395;-80
2021/09/15 01:18:23;;;;;;;15.77;7.83;;;;;;;17.98;100.00;95768.28;1035981;28;20029;-79
2021/09/15 01:18:53;;;;;;;13.03;7.33;;;;;;;17.96;100.00;95765.88;1036182;28;20052;-78
2021/09/15 01:19:24;;;;;;;11.53;7.97;;;;;;;17.98;100.00;95766.38;1031979;28;20037;-78
2021/09/15 01:19:54;;;;;;;12.07;8.47;;;;;;;18.01;100.00;95765.72;1036251;28;20033;-79
2021/09/15 01:20:24;;;;;;;11.17;8.10;;;;;;;18.03;100.00;95768.13;1035991;28;20426;-80
2021/09/15 01:20:55;;;;;;;11.23;7.90;;;;;;;18.04;100.00;95770.50;1036301;28;20430;-78
2021/09/15 01:21:25;;;;;;;15.13;8.00;;;;;;;18.04;100.00;95761.59;1040193;28;20441;-78
2021/09/15 01:21:57;;;;;;;14.30;8.53;;;;;;;18.06;100.00;95756.63;1040174;28;20462;-78
2021/09/15 01:22:29;;;;;;;12.90;8.30;;;;;;;18.09;100.00;95764.91;1032015;28;20102;-79
2021/09/15 01:22:59;;;;;;;13.02;7.72;;;;;;;18.11;100.00;95761.88;1032884;28;20471;-79
2021/09/15 01:23:29;;;;;;;11.20;8.60;;;;;;;18.13;100.00;95756.97;1031999;28;20023;-79
2021/09/15 01:24:00;;;;;;;10.10;7.63;;;;;;;18.13;100.00;95763.16;1032728;28;20069;-79
2021/09/15 01:24:30;;;;;;;10.97;8.10;;;;;;;18.15;100.00;95760.91;1036151;28;20021;-79
2021/09/15 01:25:01;;;;;;;12.53;8.50;;;;;;;18.16;100.00;95762.50;1036277;28;20444;-79
2021/09/15 01:25:31;;;;;;;11.37;8.37;;;;;;;18.19;100.00;95758.34;1043125;28;20017;-79
2021/09/15 01:26:02;;;;;;;10.63;8.13;;;;;;;18.20;100.00;95757.22;1040212;28;20055;-79
2021/09/15 01:26:35;;;;;;;11.53;7.60;;;;;;;18.21;100.00;95763.44;1032074;28;20061;-79
2021/09/15 01:27:05;;;;;;;13.15;8.55;;;;;;;18.25;100.00;95759.75;1036121;28;20018;-79
2021/09/15 01:27:36;;;;;;;12.27;8.00;;;;;;;18.25;100.00;95759.75;1036061;28;20029;-79
2021/09/15 01:28:07;;;;;;;14.87;8.90;;;;;;;18.25;100.00;95762.47;1037064;28;20041;-79
2021/09/15 01:28:37;;;;;;;16.17;8.47;;;;;;;18.27;100.00;95765.66;1036078;28;20022;-79
2021/09/15 01:29:15;;;;;;;11.30;8.27;;;;;;;18.27;100.00;95760.25;1036129;28;20018;-79
2021/09/15 01:29:46;;;;;;;11.82;8.07;;;;;;;18.25;100.00;95754.34;1036006;28;20026;-79
2021/09/15 01:30:16;;;;;;;12.40;8.97;;;;;;;18.27;100.00;95759.44;1034484;28;20022;-79
2021/09/15 01:30:46;;;;;;;15.67;8.77;;;;;;;18.27;100.00;95751.31;1040050;28;20506;-79
2021/09/15 01:31:17;;;;;;;13.30;8.43;;;;;;;18.29;100.00;95752.59;1036162;28;20113;-79
2021/09/15 01:32:04;;;;;;;16.10;8.30;;;;;;;18.28;100.00;95752.94;1036065;28;20029;-79
2021/09/15 01:32:35;;;;;;;13.40;8.52;;;;;;;18.28;100.00;95752.94;1040164;28;20024;-79
2021/09/15 01:33:11;;;;;;;15.30;8.90;;;;;;;18.27;100.00;95752.13;1038513;28;20029;-79
2021/09/15 01:33:41;;;;;;;11.57;8.68;;;;;;;18.20;100.00;95754.53;1040135;28;20500;-80
2021/09/15 01:34:12;;;;;;;12.37;8.33;;;;;;;18.14;100.00;95748.50;1036131;28;20029;-80
2021/09/15 01:34:44;;;;;;;13.73;8.90;;;;;;;18.09;100.00;95756.81;1036047;28;20017;-79
2021/09/15 01:35:14;;;;;;;10.45;8.30;;;;;;;18.11;100.00;95751.84;1036776;28;20379;-79
2021/09/15 01:35:45;;;;;;;11.50;8.20;;;;;;;18.13;100.00;95746.94;1032169;28;20026;-79
2021/09/15 01:36:15;;;;;;;12.17;8.90;;;;;;;18.13;100.00;95749.63;1032098;28;20387;-79
2021/09/15 01:36:45;;;;;;;12.97;8.43;;;;;;;18.15;100.00;95749.31;1031983;28;20475;-79
2021/09/15 01:37:16;;;;;;;11.37;8.37;;;;;;;18.10;100.00;95747.56;1032019;28;20061;-80
2021/09/15 01:37:46;;;;;;;11.43;8.70;;;;;;;18.10;100.00;95742.16;1033410;28;20026;-79
2021/09/15 01:38:17;;;;;;;12.00;8.37;;;;;;;18.08;100.00;95744.41;1040006;28;20028;-80
2021/09/15 01:38:47;;;;;;;10.13;8.37;;;;;;;18.05;100.00;95745.03;1035996;28;20037;-80
2021/09/15 01:39:17;;;;;;;10.80;8.50;;;;;;;18.03;100.00;95743.78;1028153;28;20023;-80
2021/09/15 01:39:48;;;;;;;12.07;8.33;;;;;;;18.04;100.00;95740.75;1031958;28;20080;-79
2021/09/15 01:40:18;;;;;;;13.80;8.60;;;;;;;18.08;100.00;95740.91;1028063;28;20448;-79
2021/09/15 01:40:49;;;;;;;12.63;8.57;;;;;;;18.08;100.00;95741.69;1032172;28;20451;-79
2021/09/15 01:41:19;;;;;;;14.20;9.10;;;;;;;18.02;100.00;95742.19;1036080;28;20026;-79
2021/09/15 01:41:50;;;;;;;12.67;8.83;;;;;;;18.01;100.00;95735.19;1035987;28;20014;-79
2021/09/15 01:42:20;;;;;;;14.43;8.60;;;;;;;17.99;100.00;95745.53;1036066;28;20017;-79
2021/09/15 01:42:51;;;;;;;14.57;8.80;;;;;;;17.96;100.00;95736.16;1035931;28;20030;-79
2021/09/15 01:43:21;;;;;;;12.47;8.80;;;;;;;17.98;100.00;95739.34;1035997;28;20463;-79
2021/09/15 01:43:51;;;;;;;12.47;8.40;;;;;;;17.99;100.00;95740.13;1036123;28;20029;-79
2021/09/15 01:44:38;;;;;;;13.87;8.73;;;;;;;17.99;100.00;95735.53;1040103;28;20064;-79
2021/09/15 01:45:10;;;;;;;11.80;8.32;;;;;;;18.01;100.00;95733.28;1040149;28;20013;-79
2021/09/15 01:45:40;;;;;;;12.27;8.45;;;;;;;18.04;100.00;95729.16;1036083;28;20490;-79
2021/09/15 01:46:11;;;;;;;11.97;8.30;;;;;;;18.05;100.00;95728.81;1034380;28;20149;-79
2021/09/15 01:46:41;;;;;;;12.87;8.90;;;;;;;18.04;100.00;95729.94;1031963;28;20502;-80
2021/09/15 01:47:13;;;;;;;11.30;8.77;;;;;;;18.06;100.00;95735.00;1027987;28;20030;-79
2021/09/15 01:47:43;;;;;;;14.35;8.55;;;;;;;18.06;100.00;95722.28;1032277;28;20073;-79
2021/09/15 01:48:14;;;;;;;9.43;8.00;;;;;;;18.07;100.00;95732.00;1032111;28;20502;-79
2021/09/15 01:48:44;;;;;;;12.20;8.33;;;;;;;18.02;100.00;95725.97;1036352;28;20029;-80
2021/09/15 01:49:15;;;;;;;10.27;8.60;;;;;;;18.04;100.00;95727.22;1040084;28;20037;-79
2021/09/15 01:49:45;;;;;;;13.23;8.83;;;;;;;17.97;100.00;95728.88;1040181;28;20024;-80
2021/09/15 01:50:16;;;;;;;11.20;8.23;;;;;;;18.00;100.00;95720.88;1043926;28;20028;-79
2021/09/15 01:50:46;;;;;;;10.33;8.40;;;;;;;17.99;100.00;95723.91;1035853;28;20029;-79
2021/09/15 01:51:16;;;;;;;11.47;8.90;;;;;;;17.99;100.00;95724.69;1036022;28;20026;-79
2021/09/15 01:51:47;;;;;;;12.40;9.10;;;;;;;17.96;100.00;95729.97;1035768;28;20017;-80
2021/09/15 01:52:17;;;;;;;14.17;8.37;;;;;;;17.93;100.00;95726.00;1036007;28;20030;-80
2021/09/15 01:52:48;;;;;;;12.40;8.43;;;;;;;17.91;100.00;95723.63;1040171;28;20403;-79
2021/09/15 01:53:18;;;;;;;12.60;8.67;;;;;;;17.87;100.00;95719.19;1040073;28;20033;-79
2021/09/15 01:53:49;;;;;;;14.47;9.30;;;;;;;17.90;100.00;95730.13;1036092;28;20033;-80
2021/09/15 01:54:19;;;;;;;14.63;8.83;;;;;;;17.87;100.00;95725.38;1035943;28;20030;-79
2021/09/15 01:54:50;;;;;;;11.30;8.50;;;;;;;17.87;100.00;95732.72;1031917;28;20049;-79
2021/09/15 01:55:24;;;;;;;10.80;8.57;;;;;;;17.94;100.00;95727.59;1027997;28;20431;-79
2021/09/15 01:55:55;;;;;;;15.05;9.25;;;;;;;17.91;100.00;95728.22;1032643;28;20451;-80
2021/09/15 01:56:25;;;;;;;13.57;8.87;;;;;;;17.88;100.00;95724.25;1036058;28;20030;-79
2021/09/15 01:56:56;;;;;;;13.37;8.97;;;;;;;17.92;100.00;95727.13;1036677;28;20443;-78
2021/09/15 01:57:26;;;;;;;12.83;8.77;;;;;;;17.97;100.00;95726.94;1044155;28;20104;-80
2021/09/15 01:57:57;;;;;;;12.23;8.67;;;;;;;17.97;100.00;95726.94;1040042;28;20108;-79
2021/09/15 01:58:27;;;;;;;14.03;8.07;;;;;;;17.95;100.00;95731.88;1035786;28;20105;-80
2021/09/15 01:58:57;;;;;;;14.40;8.70;;;;;;;17.95;100.00;95729.16;1027899;28;20022;-80
2021/09/15 01:59:28;;;;;;;12.93;9.00;;;;;;;17.98;100.00;95731.22;1028132;28;20039;-79
2021/09/15 01:59:59;;;;;;;11.90;8.27;;;;;;;18.01;100.00;95732.47;1031978;28;20018;-79
2021/09/15 02:00:30;;;;;;;10.82;8.40;;;;;;;18.02;100.00;95732.19;1032479;28;20026;-78
2021/09/15 02:01:00;;;;;;;12.23;8.50;;;;;;;18.04;100.00;95729.94;1040105;28;20021;-79
2021/09/15 02:01:31;;;;;;;12.67;8.33;;;;;;;18.04;100.00;95729.94;1036015;28;20022;-80
2021/09/15 02:02:01;;;;;;;11.07;7.90;;;;;;;18.04;100.00;95731.84;1036121;28;20153;-80
2021/09/15 02:02:31;;;;;;;10.10;7.87;;;;;;;18.07;100.00;95729.31;1036059;28;20374;-80
2021/09/15 02:03:02;;;;;;;13.03;8.00;;;;;;;18.06;100.00;95735.81;1036056;28;20026;-79
2021/09/15 02:03:32;;;;;;;15.03;8.37;;;;;;;18.08;100.00;95732.78;1040066;28;20022;-79
2021/09/15 02:04:03;;;;;;;11.03;7.80;;;;;;;18.09;100.00;95731.66;1039766;28;20010;-79
2021/09/15 02:04:33;;;;;;;11.73;7.87;;;;;;;18.09;100.00;95734.38;1040115;28;20052;-79
2021/09/15 02:05:04;;;;;;;11.90;7.93;;;;;;;18.11;100.00;95735.63;1035850;28;20026;-80
2021/09/15 02:05:35;;;;;;;12.47;8.37;;;;;;;18.09;100.00;95734.38;1043944;28;20021;-80
2021/09/15 02:06:05;;;;;;;12.43;8.00;;;;;;;18.05;100.00;95736.91;1044229;28;20028;-80
2021/09/15 02:06:36;;;;;;;12.87;8.17;;;;;;;18.05;100.00;95728.81;1040234;28;20383;-80
2021/09/15 02:07:06;;;;;;;10.40;7.57;;;;;;;18.08;100.00;95732.78;1044202;28;20055;-80
2021/09/15 02:07:37;;;;;;;11.43;8.37;;;;;;;18.10;100.00;95730.56;1044238;28;20021;-79
2021/09/15 02:08:07;;;;;;;12.33;8.10;;;;;;;18.11;100.00;95724.00;1031959;28;20014;-80
2021/09/15 02:08:37;;;;;;;10.83;8.23;;;;;;;18.10;100.00;95731.34;1032045;28;20026;-80
2021/09/15 02:09:08;;;;;;;9.93;7.50;;;;;;;18.10;100.00;95728.63;1031891;28;20021;-80
2021/09/15 02:09:38;;;;;;;12.37;8.03;;;;;;;18.11;100.00;95727.50;1032105;28;20382;-80
2021/09/15 02:10:09;;;;;;;12.27;8.53;;;;;;;18.15;100.00;95724.97;1044249;28;20028;-81
2021/09/15 02:10:39;;;;;;;12.03;8.33;;;;;;;18.15;100.00;95727.66;1044419;28;20040;-81
2021/09/15 02:11:10;;;;;;;15.77;8.60;;;;;;;18.14;100.00;95724.16;1044222;28;20066;-79
2021/09/15 02:11:40;;;;;;;14.37;8.53;;;;;;;18.13;100.00;95729.91;1044267;28;20051;-80
2021/09/15 02:12:11;;;;;;;10.00;8.03;;;;;;;18.13;100.00;95719.09;1044117;28;20021;-80
2021/09/15 02:12:41;;;;;;;10.80;8.07;;;;;;;18.14;100.00;95721.47;1044285;28;20434;-80
2021/09/15 02:13:12;;;;;;;12.27;8.40;;;;;;;18.13;100.00;95719.88;1044417;28;20025;-79
2021/09/15 02:13:42;;;;;;;12.23;7.80;;;;;;;18.14;100.00;95724.16;1044494;28;20036;-80
2021/09/15 02:14:13;;;;;;;10.67;8.07;;;;;;;18.13;100.00;95719.88;1044404;28;20076;-80
2021/09/15 02:14:43;;;;;;;10.67;7.30;;;;;;;18.12;100.00;95717.50;1040075;28;20465;-80
2021/09/15 02:15:13;;;;;;;15.77;8.50;;;;;;;18.11;100.00;95722.09;1039988;28;20406;-79
2021/09/15 02:15:44;;;;;;;10.60;7.93;;;;;;;18.13;100.00;95727.22;1040027;28;20494;-81
2021/09/15 02:16:15;;;;;;;14.00;7.97;;;;;;;18.14;100.00;95720.69;1036150;28;20113;-79
2021/09/15 02:16:45;;;;;;;10.40;8.13;;;;;;;18.12;100.00;95725.63;1039958;28;20029;-79
2021/09/15 02:17:15;;;;;;;11.97;8.00;;;;;;;18.16;100.00;95724.63;1035904;28;20033;-80
2021/09/15 02:17:46;;;;;;;12.43;8.07;;;;;;;18.18;100.00;95716.22;1031916;28;20049;-79
2021/09/15 02:18:16;;;;;;;10.70;7.63;;;;;;;18.20;100.00;95719.38;1031885;28;20033;-79
2021/09/15 02:18:47;;;;;;;11.67;7.60;;;;;;;18.21;100.00;95720.94;1032047;28;20053;-80
2021/09/15 02:19:17;;;;;;;11.33;8.00;;;;;;;18.22;100.00;95719.03;1031577;28;20492;-79
2021/09/15 02:19:48;;;;;;;11.27;7.77;;;;;;;18.19;100.00;95717.78;1035936;28;20515;-80
2021/09/15 02:20:18;;;;;;;14.03;8.00;;;;;;;18.20;100.00;95719.38;1035768;28;20419;-81
2021/09/15 02:20:48;;;;;;;8.70;7.77;;;;;;;18.19;100.00;95723.19;1035975;28;20029;-80
2021/09/15 02:21:19;;;;;;;10.20;7.30;;;;;;;18.19;100.00;95718.59;1035970;28;20507;-80
2021/09/15 02:21:49;;;;;;;12.80;7.80;;;;;;;18.23;100.00;95715.25;1036007;28;20053;-79